sensor_id;sensor_type;location;lat;lon;timestamp;P1;durP1;ratioP1;P2;durP2;ratioP2
33357;SDS011;19717;42.614;23.418;2022-11-23T00:01:18;6.18;;;3.78;;
33357;SDS011;19717;42.614;23.418;2022-11-23T00:03:45;7.85;;;4.72;;
33357;SDS011;19717;42.614;23.418;2022-11-23T00:06:12;4.90;;;3.20;;
33357;SDS011;19717;42.614;23.418;2022-11-23T00:08:38;3.65;;;1.95;;
33357;SDS011;19717;42.614;23.418;2022-11-23T00:11:04;3.53;;;2.50;;
33357;SDS011;19717;42.614;23.418;2022-11-23T00:13:30;2.08;;;1.67;;
33357;SDS011;19717;42.614;23.418;2022-11-23T00:15:59;2.60;;;1.95;;
33357;SDS011;19717;42.614;23.418;2022-11-23T00:18:25;2.15;;;1.75;;
33357;SDS011;19717;42.614;23.418;2022-11-23T00:20:51;2.33;;;1.23;;
33357;SDS011;19717;42.614;23.418;2022-11-23T00:23:17;5.07;;;2.65;;
33357;SDS011;19717;42.614;23.418;2022-11-23T00:25:43;3.05;;;2.40;;
33357;SDS011;19717;42.614;23.418;2022-11-23T00:28:10;5.78;;;2.33;;
33357;SDS011;19717;42.614;23.418;2022-11-23T00:30:37;2.25;;;2.05;;
33357;SDS011;19717;42.614;23.418;2022-11-23T00:33:03;3.45;;;2.08;;
33357;SDS011;19717;42.614;23.418;2022-11-23T00:35:29;2.85;;;1.65;;
33357;SDS011;19717;42.614;23.418;2022-11-23T00:37:55;3.30;;;2.17;;
33357;SDS011;19717;42.614;23.418;2022-11-23T00:40:21;3.72;;;2.22;;
33357;SDS011;19717;42.614;23.418;2022-11-23T00:42:47;8.05;;;3.45;;
33357;SDS011;19717;42.614;23.418;2022-11-23T00:45:13;15.40;;;5.68;;
33357;SDS011;19717;42.614;23.418;2022-11-23T00:47:39;16.73;;;7.53;;
33357;SDS011;19717;42.614;23.418;2022-11-23T00:50:05;6.68;;;3.22;;
33357;SDS011;19717;42.614;23.418;2022-11-23T00:52:31;2.90;;;2.40;;
33357;SDS011;19717;42.614;23.418;2022-11-23T00:54:58;3.25;;;1.85;;
33357;SDS011;19717;42.614;23.418;2022-11-23T00:57:24;3.85;;;3.05;;
33357;SDS011;19717;42.614;23.418;2022-11-23T00:59:50;3.47;;;2.85;;
33357;SDS011;19717;42.614;23.418;2022-11-23T01:02:16;5.03;;;3.70;;
33357;SDS011;19717;42.614;23.418;2022-11-23T01:04:42;4.22;;;3.00;;
33357;SDS011;19717;42.614;23.418;2022-11-23T01:07:08;2.50;;;2.03;;
33357;SDS011;19717;42.614;23.418;2022-11-23T01:09:34;4.05;;;2.58;;
33357;SDS011;19717;42.614;23.418;2022-11-23T01:12:00;4.10;;;2.70;;
33357;SDS011;19717;42.614;23.418;2022-11-23T01:14:26;11.02;;;2.63;;
33357;SDS011;19717;42.614;23.418;2022-11-23T01:16:52;2.33;;;1.55;;
33357;SDS011;19717;42.614;23.418;2022-11-23T01:19:18;3.45;;;2.20;;
33357;SDS011;19717;42.614;23.418;2022-11-23T01:21:45;3.40;;;1.83;;
33357;SDS011;19717;42.614;23.418;2022-11-23T01:24:12;2.05;;;1.65;;
33357;SDS011;19717;42.614;23.418;2022-11-23T01:26:39;2.30;;;1.45;;
33357;SDS011;19717;42.614;23.418;2022-11-23T01:29:05;5.10;;;2.60;;
33357;SDS011;19717;42.614;23.418;2022-11-23T01:31:31;0.98;;;0.93;;
33357;SDS011;19717;42.614;23.418;2022-11-23T01:33:59;1.13;;;1.13;;
33357;SDS011;19717;42.614;23.418;2022-11-23T01:36:26;1.90;;;1.73;;
33357;SDS011;19717;42.614;23.418;2022-11-23T01:38:53;6.18;;;3.20;;
33357;SDS011;19717;42.614;23.418;2022-11-23T01:41:20;2.22;;;1.80;;
33357;SDS011;19717;42.614;23.418;2022-11-23T01:43:46;2.38;;;1.80;;
33357;SDS011;19717;42.614;23.418;2022-11-23T01:46:12;1.95;;;1.60;;
33357;SDS011;19717;42.614;23.418;2022-11-23T01:51:10;2.30;;;2.08;;
33357;SDS011;19717;42.614;23.418;2022-11-23T01:53:37;3.70;;;1.80;;
33357;SDS011;19717;42.614;23.418;2022-11-23T01:56:05;2.80;;;2.30;;
33357;SDS011;19717;42.614;23.418;2022-11-23T01:58:32;3.00;;;2.47;;
33357;SDS011;19717;42.614;23.418;2022-11-23T02:00:59;1.70;;;1.60;;
33357;SDS011;19717;42.614;23.418;2022-11-23T02:03:26;3.45;;;1.90;;
33357;SDS011;19717;42.614;23.418;2022-11-23T02:05:54;1.25;;;1.08;;
33357;SDS011;19717;42.614;23.418;2022-11-23T02:08:24;1.60;;;1.50;;
33357;SDS011;19717;42.614;23.418;2022-11-23T02:10:51;0.95;;;0.95;;
33357;SDS011;19717;42.614;23.418;2022-11-23T02:13:17;4.93;;;1.42;;
33357;SDS011;19717;42.614;23.418;2022-11-23T02:15:43;10.02;;;2.65;;
33357;SDS011;19717;42.614;23.418;2022-11-23T02:18:12;4.47;;;2.03;;
33357;SDS011;19717;42.614;23.418;2022-11-23T02:20:40;5.97;;;2.20;;
33357;SDS011;19717;42.614;23.418;2022-11-23T02:28:18;0.88;;;0.88;;
33357;SDS011;19717;42.614;23.418;2022-11-23T02:30:48;3.05;;;1.80;;
33357;SDS011;19717;42.614;23.418;2022-11-23T02:33:14;3.00;;;1.60;;
33357;SDS011;19717;42.614;23.418;2022-11-23T02:35:48;5.68;;;2.38;;
33357;SDS011;19717;42.614;23.418;2022-11-23T02:38:14;1.77;;;1.25;;
33357;SDS011;19717;42.614;23.418;2022-11-23T02:40:41;1.25;;;1.17;;
33357;SDS011;19717;42.614;23.418;2022-11-23T02:43:07;0.60;;;0.60;;
33357;SDS011;19717;42.614;23.418;2022-11-23T02:45:54;0.40;;;0.40;;
33357;SDS011;19717;42.614;23.418;2022-11-23T02:48:19;1.27;;;1.17;;
33357;SDS011;19717;42.614;23.418;2022-11-23T02:50:45;6.45;;;1.77;;
33357;SDS011;19717;42.614;23.418;2022-11-23T02:53:11;3.83;;;1.50;;
33357;SDS011;19717;42.614;23.418;2022-11-23T02:55:37;1.80;;;1.10;;
33357;SDS011;19717;42.614;23.418;2022-11-23T02:58:04;1.13;;;1.02;;
33357;SDS011;19717;42.614;23.418;2022-11-23T03:00:30;3.35;;;2.72;;
33357;SDS011;19717;42.614;23.418;2022-11-23T03:02:57;5.88;;;1.25;;
33357;SDS011;19717;42.614;23.418;2022-11-23T03:05:25;1.38;;;1.25;;
33357;SDS011;19717;42.614;23.418;2022-11-23T03:07:51;3.30;;;1.23;;
33357;SDS011;19717;42.614;23.418;2022-11-23T03:10:17;3.60;;;1.75;;
33357;SDS011;19717;42.614;23.418;2022-11-23T03:12:43;2.78;;;1.88;;
33357;SDS011;19717;42.614;23.418;2022-11-23T03:15:09;2.60;;;2.33;;
33357;SDS011;19717;42.614;23.418;2022-11-23T03:17:35;2.15;;;1.88;;
33357;SDS011;19717;42.614;23.418;2022-11-23T03:20:01;2.15;;;1.98;;
33357;SDS011;19717;42.614;23.418;2022-11-23T03:22:28;3.88;;;2.53;;
33357;SDS011;19717;42.614;23.418;2022-11-23T03:24:54;2.53;;;1.67;;
33357;SDS011;19717;42.614;23.418;2022-11-23T03:27:21;2.35;;;1.90;;
33357;SDS011;19717;42.614;23.418;2022-11-23T03:29:47;2.45;;;2.25;;
33357;SDS011;19717;42.614;23.418;2022-11-23T03:32:13;2.03;;;1.83;;
33357;SDS011;19717;42.614;23.418;2022-11-23T03:34:39;2.38;;;1.50;;
33357;SDS011;19717;42.614;23.418;2022-11-23T03:37:05;2.35;;;2.13;;
33357;SDS011;19717;42.614;23.418;2022-11-23T03:39:31;3.17;;;2.38;;
33357;SDS011;19717;42.614;23.418;2022-11-23T03:41:57;2.55;;;2.35;;
33357;SDS011;19717;42.614;23.418;2022-11-23T03:44:23;3.67;;;2.70;;
33357;SDS011;19717;42.614;23.418;2022-11-23T03:46:49;2.05;;;1.75;;
33357;SDS011;19717;42.614;23.418;2022-11-23T03:49:16;2.17;;;1.95;;
33357;SDS011;19717;42.614;23.418;2022-11-23T03:51:42;3.15;;;2.60;;
33357;SDS011;19717;42.614;23.418;2022-11-23T03:54:08;4.00;;;2.67;;
33357;SDS011;19717;42.614;23.418;2022-11-23T03:56:34;4.20;;;2.67;;
33357;SDS011;19717;42.614;23.418;2022-11-23T03:59:00;5.28;;;2.53;;
33357;SDS011;19717;42.614;23.418;2022-11-23T04:01:26;2.63;;;2.33;;
33357;SDS011;19717;42.614;23.418;2022-11-23T04:03:52;1.92;;;1.80;;
33357;SDS011;19717;42.614;23.418;2022-11-23T04:06:18;1.95;;;1.75;;
33357;SDS011;19717;42.614;23.418;2022-11-23T04:08:44;2.67;;;2.38;;
33357;SDS011;19717;42.614;23.418;2022-11-23T04:11:10;2.72;;;2.05;;
33357;SDS011;19717;42.614;23.418;2022-11-23T04:13:37;7.95;;;4.65;;
33357;SDS011;19717;42.614;23.418;2022-11-23T04:16:03;8.32;;;4.57;;
33357;SDS011;19717;42.614;23.418;2022-11-23T04:18:31;3.30;;;2.83;;
33357;SDS011;19717;42.614;23.418;2022-11-23T04:20:57;5.72;;;4.75;;
33357;SDS011;19717;42.614;23.418;2022-11-23T04:23:23;4.22;;;2.20;;
33357;SDS011;19717;42.614;23.418;2022-11-23T04:25:49;2.95;;;2.10;;
33357;SDS011;19717;42.614;23.418;2022-11-23T04:28:16;3.72;;;2.35;;
33357;SDS011;19717;42.614;23.418;2022-11-23T04:30:42;3.78;;;2.85;;
33357;SDS011;19717;42.614;23.418;2022-11-23T04:33:08;12.98;;;6.95;;
33357;SDS011;19717;42.614;23.418;2022-11-23T04:35:35;3.88;;;3.17;;
33357;SDS011;19717;42.614;23.418;2022-11-23T04:38:01;2.75;;;2.42;;
33357;SDS011;19717;42.614;23.418;2022-11-23T04:40:27;3.10;;;2.53;;
33357;SDS011;19717;42.614;23.418;2022-11-23T04:42:55;4.72;;;3.03;;
33357;SDS011;19717;42.614;23.418;2022-11-23T04:45:22;4.68;;;2.20;;
33357;SDS011;19717;42.614;23.418;2022-11-23T04:47:48;7.57;;;3.10;;
33357;SDS011;19717;42.614;23.418;2022-11-23T04:50:14;3.53;;;2.83;;
33357;SDS011;19717;42.614;23.418;2022-11-23T04:52:41;5.88;;;3.03;;
33357;SDS011;19717;42.614;23.418;2022-11-23T04:55:07;5.03;;;2.35;;
33357;SDS011;19717;42.614;23.418;2022-11-23T04:57:33;2.70;;;2.20;;
33357;SDS011;19717;42.614;23.418;2022-11-23T04:59:59;3.90;;;3.47;;
33357;SDS011;19717;42.614;23.418;2022-11-23T05:02:25;4.63;;;2.95;;
33357;SDS011;19717;42.614;23.418;2022-11-23T05:04:51;3.25;;;2.97;;
33357;SDS011;19717;42.614;23.418;2022-11-23T05:07:17;3.95;;;3.15;;
33357;SDS011;19717;42.614;23.418;2022-11-23T05:09:43;3.60;;;2.92;;
33357;SDS011;19717;42.614;23.418;2022-11-23T05:12:09;4.43;;;2.90;;
33357;SDS011;19717;42.614;23.418;2022-11-23T05:14:35;3.38;;;2.45;;
33357;SDS011;19717;42.614;23.418;2022-11-23T05:17:01;2.60;;;1.92;;
33357;SDS011;19717;42.614;23.418;2022-11-23T05:19:27;3.38;;;3.03;;
33357;SDS011;19717;42.614;23.418;2022-11-23T05:21:53;2.58;;;2.03;;
33357;SDS011;19717;42.614;23.418;2022-11-23T05:24:19;2.65;;;2.42;;
33357;SDS011;19717;42.614;23.418;2022-11-23T05:26:45;1.25;;;1.05;;
33357;SDS011;19717;42.614;23.418;2022-11-23T05:29:12;2.65;;;2.38;;
33357;SDS011;19717;42.614;23.418;2022-11-23T05:31:38;1.35;;;1.25;;
33357;SDS011;19717;42.614;23.418;2022-11-23T05:34:04;3.60;;;1.98;;
33357;SDS011;19717;42.614;23.418;2022-11-23T05:36:30;3.28;;;1.92;;
33357;SDS011;19717;42.614;23.418;2022-11-23T05:38:56;5.18;;;2.17;;
33357;SDS011;19717;42.614;23.418;2022-11-23T05:41:22;3.10;;;2.42;;
33357;SDS011;19717;42.614;23.418;2022-11-23T05:43:48;2.25;;;2.05;;
33357;SDS011;19717;42.614;23.418;2022-11-23T05:46:14;5.93;;;2.92;;
33357;SDS011;19717;42.614;23.418;2022-11-23T05:48:40;3.67;;;3.38;;
33357;SDS011;19717;42.614;23.418;2022-11-23T05:51:06;3.03;;;2.03;;
33357;SDS011;19717;42.614;23.418;2022-11-23T05:53:32;4.82;;;3.75;;
33357;SDS011;19717;42.614;23.418;2022-11-23T05:55:58;3.05;;;1.90;;
33357;SDS011;19717;42.614;23.418;2022-11-23T05:58:25;3.35;;;2.75;;
33357;SDS011;19717;42.614;23.418;2022-11-23T06:00:51;1.83;;;1.73;;
33357;SDS011;19717;42.614;23.418;2022-11-23T06:03:21;4.50;;;3.17;;
33357;SDS011;19717;42.614;23.418;2022-11-23T06:05:47;2.60;;;2.40;;
33357;SDS011;19717;42.614;23.418;2022-11-23T06:08:13;7.10;;;4.22;;
33357;SDS011;19717;42.614;23.418;2022-11-23T06:10:39;5.90;;;4.90;;
33357;SDS011;19717;42.614;23.418;2022-11-23T06:13:05;8.15;;;4.05;;
33357;SDS011;19717;42.614;23.418;2022-11-23T06:15:31;17.02;;;9.85;;
33357;SDS011;19717;42.614;23.418;2022-11-23T06:17:58;4.38;;;3.95;;
33357;SDS011;19717;42.614;23.418;2022-11-23T06:20:25;5.32;;;2.67;;
33357;SDS011;19717;42.614;23.418;2022-11-23T06:22:51;5.97;;;4.43;;
33357;SDS011;19717;42.614;23.418;2022-11-23T06:25:17;6.53;;;5.35;;
33357;SDS011;19717;42.614;23.418;2022-11-23T06:27:53;14.20;;;7.15;;
33357;SDS011;19717;42.614;23.418;2022-11-23T06:30:20;9.82;;;7.97;;
33357;SDS011;19717;42.614;23.418;2022-11-23T06:32:46;11.35;;;6.45;;
33357;SDS011;19717;42.614;23.418;2022-11-23T06:35:12;13.65;;;6.70;;
33357;SDS011;19717;42.614;23.418;2022-11-23T06:37:38;6.55;;;4.70;;
33357;SDS011;19717;42.614;23.418;2022-11-23T06:40:04;4.25;;;3.85;;
33357;SDS011;19717;42.614;23.418;2022-11-23T06:42:30;8.75;;;5.00;;
33357;SDS011;19717;42.614;23.418;2022-11-23T06:44:56;10.82;;;4.15;;
33357;SDS011;19717;42.614;23.418;2022-11-23T06:47:23;5.05;;;4.18;;
33357;SDS011;19717;42.614;23.418;2022-11-23T06:49:49;9.48;;;3.58;;
33357;SDS011;19717;42.614;23.418;2022-11-23T06:52:15;2.85;;;2.20;;
33357;SDS011;19717;42.614;23.418;2022-11-23T06:54:41;3.63;;;3.33;;
33357;SDS011;19717;42.614;23.418;2022-11-23T06:57:07;5.68;;;4.07;;
33357;SDS011;19717;42.614;23.418;2022-11-23T06:59:33;3.13;;;2.45;;
33357;SDS011;19717;42.614;23.418;2022-11-23T07:02:00;5.25;;;3.40;;
33357;SDS011;19717;42.614;23.418;2022-11-23T07:04:26;4.72;;;2.97;;
33357;SDS011;19717;42.614;23.418;2022-11-23T07:06:52;4.63;;;3.33;;
33357;SDS011;19717;42.614;23.418;2022-11-23T07:09:18;5.07;;;4.28;;
33357;SDS011;19717;42.614;23.418;2022-11-23T07:11:44;4.32;;;3.72;;
33357;SDS011;19717;42.614;23.418;2022-11-23T07:14:10;3.30;;;2.90;;
33357;SDS011;19717;42.614;23.418;2022-11-23T07:16:36;5.80;;;3.72;;
33357;SDS011;19717;42.614;23.418;2022-11-23T07:19:02;2.03;;;1.83;;
33357;SDS011;19717;42.614;23.418;2022-11-23T07:21:28;6.20;;;4.07;;
33357;SDS011;19717;42.614;23.418;2022-11-23T07:23:54;3.38;;;2.30;;
33357;SDS011;19717;42.614;23.418;2022-11-23T07:26:20;3.50;;;2.45;;
33357;SDS011;19717;42.614;23.418;2022-11-23T07:28:46;4.43;;;3.72;;
33357;SDS011;19717;42.614;23.418;2022-11-23T07:31:12;4.40;;;2.92;;
33357;SDS011;19717;42.614;23.418;2022-11-23T07:33:43;3.50;;;2.10;;
33357;SDS011;19717;42.614;23.418;2022-11-23T07:36:10;2.95;;;1.88;;
33357;SDS011;19717;42.614;23.418;2022-11-23T07:38:36;5.50;;;2.97;;
33357;SDS011;19717;42.614;23.418;2022-11-23T07:41:02;3.42;;;2.60;;
33357;SDS011;19717;42.614;23.418;2022-11-23T07:43:28;1.83;;;1.73;;
33357;SDS011;19717;42.614;23.418;2022-11-23T07:45:55;3.08;;;1.90;;
33357;SDS011;19717;42.614;23.418;2022-11-23T07:48:21;2.65;;;1.88;;
33357;SDS011;19717;42.614;23.418;2022-11-23T07:50:50;3.22;;;2.15;;
33357;SDS011;19717;42.614;23.418;2022-11-23T07:53:16;3.25;;;2.65;;
33357;SDS011;19717;42.614;23.418;2022-11-23T07:55:42;6.10;;;2.83;;
33357;SDS011;19717;42.614;23.418;2022-11-23T07:58:08;3.58;;;2.97;;
33357;SDS011;19717;42.614;23.418;2022-11-23T08:00:35;3.17;;;2.88;;
33357;SDS011;19717;42.614;23.418;2022-11-23T08:03:01;4.30;;;2.80;;
33357;SDS011;19717;42.614;23.418;2022-11-23T08:05:27;3.17;;;2.88;;
33357;SDS011;19717;42.614;23.418;2022-11-23T08:07:57;3.33;;;3.00;;
33357;SDS011;19717;42.614;23.418;2022-11-23T08:10:24;13.63;;;7.10;;
33357;SDS011;19717;42.614;23.418;2022-11-23T08:12:50;17.13;;;9.32;;
33357;SDS011;19717;42.614;23.418;2022-11-23T08:15:16;8.35;;;3.83;;
33357;SDS011;19717;42.614;23.418;2022-11-23T08:17:42;5.60;;;3.70;;
33357;SDS011;19717;42.614;23.418;2022-11-23T08:20:08;2.58;;;1.92;;
33357;SDS011;19717;42.614;23.418;2022-11-23T08:22:34;2.83;;;2.55;;
33357;SDS011;19717;42.614;23.418;2022-11-23T08:25:00;5.75;;;3.65;;
33357;SDS011;19717;42.614;23.418;2022-11-23T08:27:26;2.50;;;2.30;;
33357;SDS011;19717;42.614;23.418;2022-11-23T08:29:52;2.85;;;2.55;;
33357;SDS011;19717;42.614;23.418;2022-11-23T08:32:18;4.25;;;2.97;;
33357;SDS011;19717;42.614;23.418;2022-11-23T08:34:47;6.13;;;3.13;;
33357;SDS011;19717;42.614;23.418;2022-11-23T08:37:13;4.68;;;3.00;;
33357;SDS011;19717;42.614;23.418;2022-11-23T08:39:39;6.40;;;4.22;;
33357;SDS011;19717;42.614;23.418;2022-11-23T08:42:05;7.13;;;4.05;;
33357;SDS011;19717;42.614;23.418;2022-11-23T08:44:31;4.63;;;3.33;;
33357;SDS011;19717;42.614;23.418;2022-11-23T08:46:57;5.55;;;2.80;;
33357;SDS011;19717;42.614;23.418;2022-11-23T08:49:23;5.05;;;3.22;;
33357;SDS011;19717;42.614;23.418;2022-11-23T08:51:49;4.65;;;3.25;;
33357;SDS011;19717;42.614;23.418;2022-11-23T08:54:15;4.85;;;3.42;;
33357;SDS011;19717;42.614;23.418;2022-11-23T08:56:42;5.53;;;3.60;;
33357;SDS011;19717;42.614;23.418;2022-11-23T08:59:08;3.80;;;2.72;;
33357;SDS011;19717;42.614;23.418;2022-11-23T09:01:34;4.97;;;3.25;;
33357;SDS011;19717;42.614;23.418;2022-11-23T09:04:00;4.72;;;3.33;;
33357;SDS011;19717;42.614;23.418;2022-11-23T09:06:31;4.75;;;3.15;;
33357;SDS011;19717;42.614;23.418;2022-11-23T09:08:57;7.53;;;4.60;;
33357;SDS011;19717;42.614;23.418;2022-11-23T09:11:23;4.80;;;2.65;;
33357;SDS011;19717;42.614;23.418;2022-11-23T09:13:50;4.28;;;3.83;;
33357;SDS011;19717;42.614;23.418;2022-11-23T09:16:16;6.20;;;3.38;;
33357;SDS011;19717;42.614;23.418;2022-11-23T09:18:42;7.57;;;4.25;;
33357;SDS011;19717;42.614;23.418;2022-11-23T09:21:08;6.10;;;3.45;;
33357;SDS011;19717;42.614;23.418;2022-11-23T09:23:34;5.15;;;3.45;;
33357;SDS011;19717;42.614;23.418;2022-11-23T09:26:01;4.35;;;3.28;;
33357;SDS011;19717;42.614;23.418;2022-11-23T09:28:28;3.65;;;2.65;;
33357;SDS011;19717;42.614;23.418;2022-11-23T09:30:54;4.40;;;2.72;;
33357;SDS011;19717;42.614;23.418;2022-11-23T09:33:21;3.03;;;2.72;;
33357;SDS011;19717;42.614;23.418;2022-11-23T09:35:54;4.32;;;2.95;;
33357;SDS011;19717;42.614;23.418;2022-11-23T09:38:20;4.82;;;2.47;;
33357;SDS011;19717;42.614;23.418;2022-11-23T09:40:46;2.33;;;2.10;;
33357;SDS011;19717;42.614;23.418;2022-11-23T09:50:50;5.57;;;3.65;;
33357;SDS011;19717;42.614;23.418;2022-11-23T09:53:41;3.10;;;2.35;;
33357;SDS011;19717;42.614;23.418;2022-11-23T09:56:42;10.63;;;3.67;;
33357;SDS011;19717;42.614;23.418;2022-11-23T09:59:14;5.40;;;3.65;;
33357;SDS011;19717;42.614;23.418;2022-11-23T10:01:42;6.32;;;4.22;;
33357;SDS011;19717;42.614;23.418;2022-11-23T10:04:10;3.40;;;2.47;;
33357;SDS011;19717;42.614;23.418;2022-11-23T10:06:41;5.22;;;3.45;;
33357;SDS011;19717;42.614;23.418;2022-11-23T10:24:22;4.55;;;3.50;;
33357;SDS011;19717;42.614;23.418;2022-11-23T10:26:52;4.90;;;3.22;;
33357;SDS011;19717;42.614;23.418;2022-11-23T10:29:31;3.40;;;2.85;;
33357;SDS011;19717;42.614;23.418;2022-11-23T10:31:58;3.50;;;3.05;;
33357;SDS011;19717;42.614;23.418;2022-11-23T10:37:00;7.30;;;4.07;;
33357;SDS011;19717;42.614;23.418;2022-11-23T10:39:26;4.40;;;3.08;;
33357;SDS011;19717;42.614;23.418;2022-11-23T10:41:53;3.25;;;2.47;;
33357;SDS011;19717;42.614;23.418;2022-11-23T10:46:50;5.75;;;3.63;;
33357;SDS011;19717;42.614;23.418;2022-11-23T10:49:30;5.03;;;2.72;;
33357;SDS011;19717;42.614;23.418;2022-11-23T10:52:04;5.85;;;2.95;;
33357;SDS011;19717;42.614;23.418;2022-11-23T10:54:31;6.22;;;3.10;;
33357;SDS011;19717;42.614;23.418;2022-11-23T10:56:59;4.40;;;2.75;;
33357;SDS011;19717;42.614;23.418;2022-11-23T11:04:23;9.38;;;4.10;;
33357;SDS011;19717;42.614;23.418;2022-11-23T11:06:49;5.97;;;3.65;;
33357;SDS011;19717;42.614;23.418;2022-11-23T11:09:19;3.72;;;2.53;;
33357;SDS011;19717;42.614;23.418;2022-11-23T11:11:46;4.82;;;1.95;;
33357;SDS011;19717;42.614;23.418;2022-11-23T11:16:53;2.08;;;1.85;;
33357;SDS011;19717;42.614;23.418;2022-11-23T11:21:55;10.60;;;4.53;;
33357;SDS011;19717;42.614;23.418;2022-11-23T11:24:26;5.45;;;3.38;;
33357;SDS011;19717;42.614;23.418;2022-11-23T11:26:59;6.90;;;2.38;;
33357;SDS011;19717;42.614;23.418;2022-11-23T11:32:11;4.47;;;1.77;;
33357;SDS011;19717;42.614;23.418;2022-11-23T11:34:46;1.83;;;1.20;;
33357;SDS011;19717;42.614;23.418;2022-11-23T11:45:31;0.50;;;0.50;;
33357;SDS011;19717;42.614;23.418;2022-11-23T11:48:08;0.88;;;0.88;;
33357;SDS011;19717;42.614;23.418;2022-11-23T11:50:37;2.00;;;1.35;;
33357;SDS011;19717;42.614;23.418;2022-11-23T11:53:07;2.60;;;0.77;;
33357;SDS011;19717;42.614;23.418;2022-11-23T11:55:45;1.70;;;0.95;;
33357;SDS011;19717;42.614;23.418;2022-11-23T11:58:14;6.75;;;2.55;;
33357;SDS011;19717;42.614;23.418;2022-11-23T12:00:41;1.70;;;1.15;;
33357;SDS011;19717;42.614;23.418;2022-11-23T12:05:42;2.47;;;1.35;;
33357;SDS011;19717;42.614;23.418;2022-11-23T12:08:12;4.20;;;2.67;;
33357;SDS011;19717;42.614;23.418;2022-11-23T12:13:07;5.13;;;2.55;;
33357;SDS011;19717;42.614;23.418;2022-11-23T12:15:36;0.73;;;0.73;;
33357;SDS011;19717;42.614;23.418;2022-11-23T12:18:26;0.57;;;0.50;;
33357;SDS011;19717;42.614;23.418;2022-11-23T12:21:04;1.63;;;1.05;;
33357;SDS011;19717;42.614;23.418;2022-11-23T12:23:41;0.30;;;0.30;;
33357;SDS011;19717;42.614;23.418;2022-11-23T12:31:29;6.70;;;2.80;;
33357;SDS011;19717;42.614;23.418;2022-11-23T12:44:42;0.20;;;0.20;;
33357;SDS011;19717;42.614;23.418;2022-11-23T12:52:15;0.40;;;0.40;;
33357;SDS011;19717;42.614;23.418;2022-11-23T12:57:21;0.40;;;0.40;;
33357;SDS011;19717;42.614;23.418;2022-11-23T13:02:21;0.40;;;0.40;;
33357;SDS011;19717;42.614;23.418;2022-11-23T13:07:26;0.38;;;0.35;;
33357;SDS011;19717;42.614;23.418;2022-11-23T13:17:28;5.05;;;1.20;;
33357;SDS011;19717;42.614;23.418;2022-11-23T13:22:30;1.25;;;0.70;;
33357;SDS011;19717;42.614;23.418;2022-11-23T13:29:53;0.75;;;0.52;;
33357;SDS011;19717;42.614;23.418;2022-11-23T13:42:46;0.25;;;0.25;;
33357;SDS011;19717;42.614;23.418;2022-11-23T13:45:16;0.35;;;0.35;;
33357;SDS011;19717;42.614;23.418;2022-11-23T13:48:03;1.27;;;0.80;;
33357;SDS011;19717;42.614;23.418;2022-11-23T13:52:55;1.77;;;0.47;;
33357;SDS011;19717;42.614;23.418;2022-11-23T13:55:26;0.20;;;0.20;;
33357;SDS011;19717;42.614;23.418;2022-11-23T14:06:00;0.30;;;0.30;;
33357;SDS011;19717;42.614;23.418;2022-11-23T14:08:26;0.30;;;0.30;;
33357;SDS011;19717;42.614;23.418;2022-11-23T14:10:52;0.95;;;0.52;;
33357;SDS011;19717;42.614;23.418;2022-11-23T14:13:26;0.47;;;0.47;;
33357;SDS011;19717;42.614;23.418;2022-11-23T14:15:57;2.33;;;1.00;;
33357;SDS011;19717;42.614;23.418;2022-11-23T14:41:52;0.30;;;0.30;;
33357;SDS011;19717;42.614;23.418;2022-11-23T14:44:22;0.82;;;0.52;;
33357;SDS011;19717;42.614;23.418;2022-11-23T14:47:03;0.22;;;0.22;;
33357;SDS011;19717;42.614;23.418;2022-11-23T14:49:29;0.40;;;0.40;;
33357;SDS011;19717;42.614;23.418;2022-11-23T14:51:55;0.30;;;0.30;;
33357;SDS011;19717;42.614;23.418;2022-11-23T14:54:21;0.30;;;0.30;;
33357;SDS011;19717;42.614;23.418;2022-11-23T14:56:49;0.40;;;0.38;;
33357;SDS011;19717;42.614;23.418;2022-11-23T15:04:22;0.47;;;0.47;;
33357;SDS011;19717;42.614;23.418;2022-11-23T15:06:48;0.20;;;0.20;;
33357;SDS011;19717;42.614;23.418;2022-11-23T15:09:20;0.50;;;0.47;;
33357;SDS011;19717;42.614;23.418;2022-11-23T15:12:03;2.85;;;1.23;;
33357;SDS011;19717;42.614;23.418;2022-11-23T15:14:30;0.50;;;0.50;;
33357;SDS011;19717;42.614;23.418;2022-11-23T15:17:08;0.30;;;0.30;;
33357;SDS011;19717;42.614;23.418;2022-11-23T15:19:37;0.40;;;0.40;;
33357;SDS011;19717;42.614;23.418;2022-11-23T15:22:03;0.20;;;0.20;;
33357;SDS011;19717;42.614;23.418;2022-11-23T15:24:29;0.20;;;0.20;;
33357;SDS011;19717;42.614;23.418;2022-11-23T15:26:56;0.30;;;0.30;;
33357;SDS011;19717;42.614;23.418;2022-11-23T15:29:28;0.38;;;0.30;;
33357;SDS011;19717;42.614;23.418;2022-11-23T15:31:54;0.63;;;0.45;;
33357;SDS011;19717;42.614;23.418;2022-11-23T15:34:20;0.80;;;0.75;;
33357;SDS011;19717;42.614;23.418;2022-11-23T15:36:47;0.52;;;0.52;;
33357;SDS011;19717;42.614;23.418;2022-11-23T15:39:18;0.50;;;0.50;;
33357;SDS011;19717;42.614;23.418;2022-11-23T15:41:44;0.55;;;0.55;;
33357;SDS011;19717;42.614;23.418;2022-11-23T15:44:21;0.95;;;0.35;;
33357;SDS011;19717;42.614;23.418;2022-11-23T15:46:49;1.70;;;0.90;;
33357;SDS011;19717;42.614;23.418;2022-11-23T15:49:15;0.60;;;0.57;;
33357;SDS011;19717;42.614;23.418;2022-11-23T15:51:43;2.05;;;0.70;;
33357;SDS011;19717;42.614;23.418;2022-11-23T15:54:32;0.28;;;0.28;;
33357;SDS011;19717;42.614;23.418;2022-11-23T15:56:55;2.60;;;0.60;;
33357;SDS011;19717;42.614;23.418;2022-11-23T16:01:49;2.08;;;0.30;;
33357;SDS011;19717;42.614;23.418;2022-11-23T16:04:34;1.63;;;0.98;;
33357;SDS011;19717;42.614;23.418;2022-11-23T16:07:20;0.32;;;0.32;;
33357;SDS011;19717;42.614;23.418;2022-11-23T16:12:32;0.32;;;0.20;;
33357;SDS011;19717;42.614;23.418;2022-11-23T16:15:43;0.30;;;0.30;;
33357;SDS011;19717;42.614;23.418;2022-11-23T16:17:46;0.22;;;0.22;;
33357;SDS011;19717;42.614;23.418;2022-11-23T16:20:13;2.05;;;0.45;;
33357;SDS011;19717;42.614;23.418;2022-11-23T16:22:39;2.00;;;0.60;;
33357;SDS011;19717;42.614;23.418;2022-11-23T16:28:01;2.83;;;1.00;;
33357;SDS011;19717;42.614;23.418;2022-11-23T16:30:46;0.90;;;0.73;;
33357;SDS011;19717;42.614;23.418;2022-11-23T16:33:13;0.20;;;0.20;;
33357;SDS011;19717;42.614;23.418;2022-11-23T16:35:39;0.85;;;0.85;;
33357;SDS011;19717;42.614;23.418;2022-11-23T16:38:06;1.08;;;0.98;;
33357;SDS011;19717;42.614;23.418;2022-11-23T16:40:32;1.30;;;1.17;;
33357;SDS011;19717;42.614;23.418;2022-11-23T16:42:58;2.63;;;1.50;;
33357;SDS011;19717;42.614;23.418;2022-11-23T16:45:24;5.22;;;1.98;;
33357;SDS011;19717;42.614;23.418;2022-11-23T16:47:54;2.53;;;2.20;;
33357;SDS011;19717;42.614;23.418;2022-11-23T16:50:21;9.45;;;3.33;;
33357;SDS011;19717;42.614;23.418;2022-11-23T16:52:48;14.13;;;6.22;;
33357;SDS011;19717;42.614;23.418;2022-11-23T16:55:14;12.65;;;6.20;;
33357;SDS011;19717;42.614;23.418;2022-11-23T16:57:40;4.10;;;3.20;;
33357;SDS011;19717;42.614;23.418;2022-11-23T17:00:13;7.40;;;3.63;;
33357;SDS011;19717;42.614;23.418;2022-11-23T17:02:39;5.15;;;3.85;;
33357;SDS011;19717;42.614;23.418;2022-11-23T17:05:11;6.97;;;4.13;;
33357;SDS011;19717;42.614;23.418;2022-11-23T17:07:38;8.35;;;4.03;;
33357;SDS011;19717;42.614;23.418;2022-11-23T17:10:04;8.10;;;4.55;;
33357;SDS011;19717;42.614;23.418;2022-11-23T17:12:30;8.35;;;3.35;;
33357;SDS011;19717;42.614;23.418;2022-11-23T17:14:56;4.65;;;2.40;;
33357;SDS011;19717;42.614;23.418;2022-11-23T17:17:23;7.70;;;2.97;;
33357;SDS011;19717;42.614;23.418;2022-11-23T17:19:49;33.58;;;11.40;;